﻿<?xml version="1.0" encoding="UTF-8" standalone="no" ?>
<gpx xmlns="http://www.topografix.com/GPX/1/1" creator="CompeGPS" version="1.1" xmlns:xsi="http://www.w3.org/2001/XMLSchema-instance" xsi:schemaLocation="http://www.topografix.com/GPX/1/1 http://www.topografix.com/GPX/1/1/gpx.xsd">
  <metadata>
    <link href="http://www.compegps.com">
      <text>CompeGPS TEAM, SL</text>
    </link>
    <time>2024-06-02T16:06:04Z</time>
    <bounds maxlat="38.238710" maxlon="-1.422867" minlat="38.235875" minlon="-1.429929"/>
  </metadata>
  <trk>
    <name>Cieza_Urbana_casco-antiguo_track</name>
    <trkseg>
      <trkpt lat="38.238697" lon="-1.422948">
        <ele>187.9</ele>
        <time>2024-06-02T08:16:47Z</time>
        <cmt>WAYPOINT.bmp</cmt>
        <sym>C:\Program Files (x86)\CompeGPS\symbols\GARMIN.ZIP\WAYPOINT.bmp</sym>
      </trkpt>
      <trkpt lat="38.238624" lon="-1.422966">
        <ele>187.9</ele>
        <time>2024-06-02T08:16:50Z</time>
      </trkpt>
      <trkpt lat="38.238575" lon="-1.422975">
        <ele>187.9</ele>
        <time>2024-06-02T08:16:50Z</time>
      </trkpt>
      <trkpt lat="38.238540" lon="-1.422981">
        <ele>187.9</ele>
        <time>2024-06-02T08:16:59Z</time>
      </trkpt>
      <trkpt lat="38.238484" lon="-1.423002">
        <ele>188.0</ele>
        <time>2024-06-02T08:17:24Z</time>
      </trkpt>
      <trkpt lat="38.238434" lon="-1.423006">
        <ele>188.0</ele>
        <time>2024-06-02T08:17:38Z</time>
      </trkpt>
      <trkpt lat="38.238358" lon="-1.423024">
        <ele>188.0</ele>
        <time>2024-06-02T08:18:55Z</time>
      </trkpt>
      <trkpt lat="38.238314" lon="-1.423031">
        <ele>187.7</ele>
        <time>2024-06-02T08:19:02Z</time>
      </trkpt>
      <trkpt lat="38.238210" lon="-1.423120">
        <ele>187.9</ele>
        <time>2024-06-02T08:19:16Z</time>
      </trkpt>
      <trkpt lat="38.238108" lon="-1.423311">
        <ele>188.4</ele>
        <time>2024-06-02T08:19:43Z</time>
      </trkpt>
      <trkpt lat="38.237966" lon="-1.423488">
        <ele>189.1</ele>
        <time>2024-06-02T08:19:57Z</time>
      </trkpt>
      <trkpt lat="38.237843" lon="-1.423669">
        <ele>189.2</ele>
        <time>2024-06-02T08:20:10Z</time>
      </trkpt>
      <trkpt lat="38.237664" lon="-1.423950">
        <ele>189.9</ele>
        <time>2024-06-02T08:20:34Z</time>
      </trkpt>
      <trkpt lat="38.237788" lon="-1.424082">
        <ele>189.9</ele>
        <time>2024-06-02T08:20:44Z</time>
      </trkpt>
      <trkpt lat="38.237961" lon="-1.424248">
        <ele>189.9</ele>
        <time>2024-06-02T08:20:59Z</time>
      </trkpt>
      <trkpt lat="38.238123" lon="-1.424367">
        <ele>189.1</ele>
        <time>2024-06-02T08:21:10Z</time>
      </trkpt>
      <trkpt lat="38.238257" lon="-1.424514">
        <ele>188.1</ele>
        <time>2024-06-02T08:21:22Z</time>
      </trkpt>
      <trkpt lat="38.238371" lon="-1.424646">
        <ele>187.8</ele>
        <time>2024-06-02T08:21:36Z</time>
      </trkpt>
      <trkpt lat="38.238479" lon="-1.424830">
        <ele>186.4</ele>
        <time>2024-06-02T08:22:52Z</time>
      </trkpt>
      <trkpt lat="38.238327" lon="-1.424789">
        <ele>186.4</ele>
        <time>2024-06-02T08:23:58Z</time>
      </trkpt>
      <trkpt lat="38.238195" lon="-1.424936">
        <ele>189.6</ele>
        <time>2024-06-02T08:24:23Z</time>
      </trkpt>
      <trkpt lat="38.238047" lon="-1.424966">
        <ele>189.7</ele>
        <time>2024-06-02T08:25:13Z</time>
      </trkpt>
      <trkpt lat="38.237924" lon="-1.425102">
        <ele>190.4</ele>
        <time>2024-06-02T08:25:58Z</time>
      </trkpt>
      <trkpt lat="38.237474" lon="-1.424951">
        <ele>191.0</ele>
        <time>2024-06-02T08:26:23Z</time>
      </trkpt>
      <trkpt lat="38.237443" lon="-1.425140">
        <ele>190.9</ele>
        <time>2024-06-02T08:26:35Z</time>
      </trkpt>
      <trkpt lat="38.237386" lon="-1.425321">
        <ele>190.8</ele>
        <time>2024-06-02T08:26:59Z</time>
      </trkpt>
      <trkpt lat="38.237314" lon="-1.425523">
        <ele>190.6</ele>
        <time>2024-06-02T08:27:12Z</time>
      </trkpt>
      <trkpt lat="38.237248" lon="-1.425748">
        <ele>190.2</ele>
        <time>2024-06-02T08:27:23Z</time>
      </trkpt>
      <trkpt lat="38.237181" lon="-1.425964">
        <ele>189.9</ele>
        <time>2024-06-02T08:27:41Z</time>
      </trkpt>
      <trkpt lat="38.237107" lon="-1.426188">
        <ele>189.6</ele>
        <time>2024-06-02T08:28:03Z</time>
      </trkpt>
      <trkpt lat="38.237046" lon="-1.426413">
        <ele>189.5</ele>
        <time>2024-06-02T08:28:18Z</time>
      </trkpt>
      <trkpt lat="38.236950" lon="-1.426741">
        <ele>188.8</ele>
        <time>2024-06-02T08:28:35Z</time>
      </trkpt>
      <trkpt lat="38.237154" lon="-1.426876">
        <ele>188.8</ele>
        <time>2024-06-02T08:28:47Z</time>
      </trkpt>
      <trkpt lat="38.237091" lon="-1.427068">
        <ele>188.5</ele>
        <time>2024-06-02T08:29:04Z</time>
      </trkpt>
      <trkpt lat="38.237026" lon="-1.427268">
        <ele>188.4</ele>
        <time>2024-06-02T08:29:26Z</time>
      </trkpt>
      <trkpt lat="38.236941" lon="-1.427591">
        <ele>188.1</ele>
        <time>2024-06-02T08:29:48Z</time>
      </trkpt>
      <trkpt lat="38.236773" lon="-1.427594">
        <ele>187.8</ele>
        <time>2024-06-02T08:30:20Z</time>
      </trkpt>
      <trkpt lat="38.236724" lon="-1.427859">
        <ele>187.8</ele>
        <time>2024-06-02T08:32:04Z</time>
      </trkpt>
      <trkpt lat="38.236927" lon="-1.428015">
        <ele>187.8</ele>
        <time>2024-06-02T08:32:42Z</time>
      </trkpt>
      <trkpt lat="38.237088" lon="-1.428089">
        <ele>187.8</ele>
        <time>2024-06-02T08:32:54Z</time>
      </trkpt>
      <trkpt lat="38.237343" lon="-1.428196">
        <ele>186.2</ele>
        <time>2024-06-02T08:33:20Z</time>
      </trkpt>
      <trkpt lat="38.237289" lon="-1.428462">
        <ele>184.7</ele>
        <time>2024-06-02T08:33:35Z</time>
      </trkpt>
      <trkpt lat="38.237303" lon="-1.428641">
        <ele>184.0</ele>
        <time>2024-06-02T08:35:08Z</time>
      </trkpt>
      <trkpt lat="38.237277" lon="-1.428871">
        <ele>184.0</ele>
        <time>2024-06-02T08:35:23Z</time>
      </trkpt>
      <trkpt lat="38.237264" lon="-1.429110">
        <ele>184.0</ele>
        <time>2024-06-02T08:36:14Z</time>
      </trkpt>
      <trkpt lat="38.237129" lon="-1.429274">
        <ele>184.0</ele>
        <time>2024-06-02T08:37:23Z</time>
      </trkpt>
      <trkpt lat="38.237008" lon="-1.429491">
        <ele>184.0</ele>
        <time>2024-06-02T08:37:42Z</time>
      </trkpt>
      <trkpt lat="38.236924" lon="-1.429663">
        <ele>184.0</ele>
        <time>2024-06-02T08:38:14Z</time>
      </trkpt>
      <trkpt lat="38.236820" lon="-1.429903">
        <ele>184.0</ele>
        <time>2024-06-02T08:39:02Z</time>
      </trkpt>
      <trkpt lat="38.236647" lon="-1.429929">
        <ele>184.0</ele>
        <time>2024-06-02T08:39:20Z</time>
      </trkpt>
      <trkpt lat="38.236797" lon="-1.429869">
        <ele>184.0</ele>
        <time>2024-06-02T08:40:55Z</time>
      </trkpt>
      <trkpt lat="38.236874" lon="-1.429641">
        <ele>184.0</ele>
        <time>2024-06-02T08:42:15Z</time>
      </trkpt>
      <trkpt lat="38.236955" lon="-1.429422">
        <ele>184.0</ele>
        <time>2024-06-02T08:42:33Z</time>
      </trkpt>
      <trkpt lat="38.237007" lon="-1.429233">
        <ele>184.0</ele>
        <time>2024-06-02T08:43:25Z</time>
      </trkpt>
      <trkpt lat="38.236874" lon="-1.429237">
        <ele>184.0</ele>
        <time>2024-06-02T08:44:39Z</time>
      </trkpt>
      <trkpt lat="38.236796" lon="-1.429198">
        <ele>185.0</ele>
        <time>2024-06-02T08:46:38Z</time>
      </trkpt>
      <trkpt lat="38.236784" lon="-1.429265">
        <ele>186.0</ele>
        <time>2024-06-02T08:46:49Z</time>
      </trkpt>
      <trkpt lat="38.236823" lon="-1.429312">
        <ele>186.6</ele>
        <time>2024-06-02T08:47:26Z</time>
      </trkpt>
      <trkpt lat="38.236743" lon="-1.429237">
        <ele>186.6</ele>
        <time>2024-06-02T08:56:25Z</time>
      </trkpt>
      <trkpt lat="38.236503" lon="-1.429162">
        <ele>187.0</ele>
        <time>2024-06-02T08:58:42Z</time>
      </trkpt>
      <trkpt lat="38.236198" lon="-1.429114">
        <ele>187.0</ele>
        <time>2024-06-02T08:59:33Z</time>
      </trkpt>
      <trkpt lat="38.236181" lon="-1.428858">
        <ele>187.0</ele>
        <time>2024-06-02T08:59:53Z</time>
      </trkpt>
      <trkpt lat="38.236134" lon="-1.428674">
        <ele>186.5</ele>
        <time>2024-06-02T09:00:07Z</time>
      </trkpt>
      <trkpt lat="38.235875" lon="-1.428487">
        <ele>185.8</ele>
        <time>2024-06-02T09:00:24Z</time>
      </trkpt>
      <trkpt lat="38.235926" lon="-1.428242">
        <ele>185.5</ele>
        <time>2024-06-02T09:00:41Z</time>
      </trkpt>
      <trkpt lat="38.235985" lon="-1.428010">
        <ele>186.3</ele>
        <time>2024-06-02T09:00:57Z</time>
      </trkpt>
      <trkpt lat="38.236038" lon="-1.427798">
        <ele>186.3</ele>
        <time>2024-06-02T09:01:11Z</time>
      </trkpt>
      <trkpt lat="38.236108" lon="-1.427582">
        <ele>186.3</ele>
        <time>2024-06-02T09:01:24Z</time>
      </trkpt>
      <trkpt lat="38.236166" lon="-1.427355">
        <ele>186.2</ele>
        <time>2024-06-02T09:01:51Z</time>
      </trkpt>
      <trkpt lat="38.236225" lon="-1.427138">
        <ele>186.5</ele>
        <time>2024-06-02T09:02:06Z</time>
      </trkpt>
      <trkpt lat="38.236282" lon="-1.426928">
        <ele>187.2</ele>
        <time>2024-06-02T09:02:20Z</time>
      </trkpt>
      <trkpt lat="38.236346" lon="-1.426697">
        <ele>188.1</ele>
        <time>2024-06-02T09:02:36Z</time>
      </trkpt>
      <trkpt lat="38.236409" lon="-1.426479">
        <ele>188.1</ele>
        <time>2024-06-02T09:02:51Z</time>
      </trkpt>
      <trkpt lat="38.236483" lon="-1.426254">
        <ele>188.3</ele>
        <time>2024-06-02T09:03:08Z</time>
      </trkpt>
      <trkpt lat="38.236563" lon="-1.426066">
        <ele>188.9</ele>
        <time>2024-06-02T09:03:29Z</time>
      </trkpt>
      <trkpt lat="38.236668" lon="-1.425715">
        <ele>189.1</ele>
        <time>2024-06-02T09:03:49Z</time>
      </trkpt>
      <trkpt lat="38.236691" lon="-1.425366">
        <ele>189.1</ele>
        <time>2024-06-02T09:04:11Z</time>
      </trkpt>
      <trkpt lat="38.236487" lon="-1.425278">
        <ele>189.2</ele>
        <time>2024-06-02T09:04:24Z</time>
      </trkpt>
      <trkpt lat="38.236344" lon="-1.425230">
        <ele>189.3</ele>
        <time>2024-06-02T09:04:37Z</time>
      </trkpt>
      <trkpt lat="38.236165" lon="-1.425174">
        <ele>184.7</ele>
        <time>2024-06-02T09:05:13Z</time>
      </trkpt>
      <trkpt lat="38.236180" lon="-1.425108">
        <ele>184.1</ele>
        <time>2024-06-02T09:06:15Z</time>
      </trkpt>
      <trkpt lat="38.236256" lon="-1.424885">
        <ele>184.7</ele>
        <time>2024-06-02T09:06:31Z</time>
      </trkpt>
      <trkpt lat="38.236309" lon="-1.424664">
        <ele>184.7</ele>
        <time>2024-06-02T09:07:00Z</time>
      </trkpt>
      <trkpt lat="38.236333" lon="-1.424435">
        <ele>183.9</ele>
        <time>2024-06-02T09:07:35Z</time>
      </trkpt>
      <trkpt lat="38.236382" lon="-1.424184">
        <ele>184.0</ele>
        <time>2024-06-02T09:08:20Z</time>
      </trkpt>
      <trkpt lat="38.236425" lon="-1.423975">
        <ele>184.2</ele>
        <time>2024-06-02T09:08:51Z</time>
      </trkpt>
      <trkpt lat="38.236454" lon="-1.423763">
        <ele>185.0</ele>
        <time>2024-06-02T09:09:04Z</time>
      </trkpt>
      <trkpt lat="38.236432" lon="-1.423583">
        <ele>186.0</ele>
        <time>2024-06-02T09:09:45Z</time>
      </trkpt>
      <trkpt lat="38.236561" lon="-1.423315">
        <ele>187.0</ele>
        <time>2024-06-02T09:10:32Z</time>
      </trkpt>
      <trkpt lat="38.236632" lon="-1.423090">
        <ele>188.0</ele>
        <time>2024-06-02T09:10:57Z</time>
      </trkpt>
      <trkpt lat="38.236792" lon="-1.423170">
        <ele>188.0</ele>
        <time>2024-06-02T09:11:29Z</time>
      </trkpt>
      <trkpt lat="38.236783" lon="-1.423384">
        <ele>188.3</ele>
        <time>2024-06-02T09:11:52Z</time>
      </trkpt>
      <trkpt lat="38.236777" lon="-1.423627">
        <ele>189.0</ele>
        <time>2024-06-02T09:12:09Z</time>
      </trkpt>
      <trkpt lat="38.236772" lon="-1.423792">
        <ele>189.2</ele>
        <time>2024-06-02T09:12:39Z</time>
      </trkpt>
      <trkpt lat="38.236755" lon="-1.423865">
        <ele>189.0</ele>
        <time>2024-06-02T09:15:22Z</time>
      </trkpt>
      <trkpt lat="38.236802" lon="-1.423866">
        <ele>189.3</ele>
        <time>2024-06-02T09:20:23Z</time>
      </trkpt>
      <trkpt lat="38.236803" lon="-1.423819">
        <ele>189.2</ele>
        <time>2024-06-02T09:20:34Z</time>
      </trkpt>
      <trkpt lat="38.236807" lon="-1.423611">
        <ele>189.2</ele>
        <time>2024-06-02T09:20:40Z</time>
      </trkpt>
      <trkpt lat="38.236812" lon="-1.423343">
        <ele>189.0</ele>
        <time>2024-06-02T09:21:04Z</time>
      </trkpt>
      <trkpt lat="38.236919" lon="-1.423225">
        <ele>188.2</ele>
        <time>2024-06-02T09:22:06Z</time>
      </trkpt>
      <trkpt lat="38.237029" lon="-1.423032">
        <ele>188.0</ele>
        <time>2024-06-02T09:22:21Z</time>
      </trkpt>
      <trkpt lat="38.237195" lon="-1.422943">
        <ele>188.0</ele>
        <time>2024-06-02T09:22:34Z</time>
      </trkpt>
      <trkpt lat="38.237314" lon="-1.422867">
        <ele>188.0</ele>
        <time>2024-06-02T09:22:49Z</time>
      </trkpt>
      <trkpt lat="38.237479" lon="-1.422980">
        <ele>188.0</ele>
        <time>2024-06-02T09:23:03Z</time>
      </trkpt>
      <trkpt lat="38.237642" lon="-1.423093">
        <ele>187.7</ele>
        <time>2024-06-02T09:23:17Z</time>
      </trkpt>
      <trkpt lat="38.237797" lon="-1.423203">
        <ele>188.7</ele>
        <time>2024-06-02T09:23:31Z</time>
      </trkpt>
      <trkpt lat="38.238000" lon="-1.423358">
        <ele>188.7</ele>
        <time>2024-06-02T09:23:47Z</time>
      </trkpt>
      <trkpt lat="38.238099" lon="-1.423190">
        <ele>188.4</ele>
        <time>2024-06-02T09:24:21Z</time>
      </trkpt>
      <trkpt lat="38.238217" lon="-1.422922">
        <ele>188.3</ele>
        <time>2024-06-02T09:24:34Z</time>
      </trkpt>
      <trkpt lat="38.238380" lon="-1.422924">
        <ele>187.9</ele>
        <time>2024-06-02T09:25:16Z</time>
      </trkpt>
      <trkpt lat="38.238710" lon="-1.422895">
        <ele>187.9</ele>
        <time>2024-06-02T09:25:36Z</time>
        <cmt>WAYPOINT.bmp</cmt>
        <sym>C:\Program Files (x86)\CompeGPS\symbols\GARMIN.ZIP\WAYPOINT.bmp</sym>
      </trkpt>
    </trkseg>
  </trk>
</gpx>
